Terminal Aerodrome Forecast
Issued by NWS Charleston, WV

Current Version | Previous Version | Text Only | Print | Product List | Glossary Off
Versions: 1 2 3 4 5 6 7 8 9 10 11 12 13 14 15 16 17 18 19 20 21 22 23 24 25

129
FTUS41 KRLX 270525
TAFPKB
TAF
KPKB 270525Z 2706/2806 25008G16KT 5SM TSRA BKN035CB
     FM270630 VRB03KT P6SM SHRA VCTS OVC050CB
     FM270800 VRB03KT P6SM OVC050
     FM271400 VRB03KT P6SM OVC030
     FM271900 VRB03KT P6SM BKN040
     FM272200 VRB04KT P6SM VCTS BKN045CB
     FM280300 00000KT P6SM SCT040=

USA.gov is the U.S. government's official web portal to all federal, state and local government web resources and services.